<?xml version="1.0" encoding="UTF-8" standalone="no" ?>
<gpx xmlns="http://www.topografix.com/GPX/1/1" xmlns:xsi="http://www.w3.org/2001/XMLSchema-instance" xsi:schemaLocation="http://www.topografix.com/GPX/1/1 http://www.topografix.com/GPX/1/1/gpx.xsd" version="1.1" creator="VisuGPX - https://www.visugpx.com">
  <metadata>
    <name>Tracé actuel: 04 AVR 2011 07:11 002</name>
  </metadata>
  <trk>
    <name><![CDATA[Tracé actuel: 04 AVR 2011 07:11 002]]></name>
    <trkseg>
      <trkpt lat="44.81549" lon="6.9473">
        <ele>1700.71</ele>
        <time>2011-04-04T06:11:07Z</time>
      </trkpt>
      <trkpt lat="44.8156" lon="6.94716">
        <ele>1713.69</ele>
        <time>2011-04-04T06:11:29Z</time>
      </trkpt>
      <trkpt lat="44.81602" lon="6.9473">
        <ele>1716.57</ele>
        <time>2011-04-04T06:11:34Z</time>
      </trkpt>
      <trkpt lat="44.81546" lon="6.94688">
        <ele>1724.74</ele>
        <time>2011-04-04T06:16:22Z</time>
      </trkpt>
      <trkpt lat="44.81509" lon="6.9473">
        <ele>1726.67</ele>
        <time>2011-04-04T06:17:44Z</time>
      </trkpt>
      <trkpt lat="44.81487" lon="6.94774">
        <ele>1724.74</ele>
        <time>2011-04-04T06:18:23Z</time>
      </trkpt>
      <trkpt lat="44.81458" lon="6.9482">
        <ele>1726.67</ele>
        <time>2011-04-04T06:19:19Z</time>
      </trkpt>
      <trkpt lat="44.81431" lon="6.94858">
        <ele>1734.84</ele>
        <time>2011-04-04T06:20:15Z</time>
      </trkpt>
      <trkpt lat="44.81444" lon="6.94795">
        <ele>1756.95</ele>
        <time>2011-04-04T06:23:09Z</time>
      </trkpt>
      <trkpt lat="44.81397" lon="6.9483">
        <ele>1757.43</ele>
        <time>2011-04-04T06:27:59Z</time>
      </trkpt>
      <trkpt lat="44.81376" lon="6.94889">
        <ele>1754.06</ele>
        <time>2011-04-04T06:28:37Z</time>
      </trkpt>
      <trkpt lat="44.81359" lon="6.94937">
        <ele>1757.91</ele>
        <time>2011-04-04T06:29:42Z</time>
      </trkpt>
      <trkpt lat="44.81318" lon="6.94964">
        <ele>1763.2</ele>
        <time>2011-04-04T06:30:41Z</time>
      </trkpt>
      <trkpt lat="44.81311" lon="6.95016">
        <ele>1770.89</ele>
        <time>2011-04-04T06:31:32Z</time>
      </trkpt>
      <trkpt lat="44.81288" lon="6.95058">
        <ele>1774.25</ele>
        <time>2011-04-04T06:32:27Z</time>
      </trkpt>
      <trkpt lat="44.81277" lon="6.95117">
        <ele>1780.02</ele>
        <time>2011-04-04T06:33:36Z</time>
      </trkpt>
      <trkpt lat="44.81269" lon="6.95171">
        <ele>1787.71</ele>
        <time>2011-04-04T06:34:34Z</time>
      </trkpt>
      <trkpt lat="44.81258" lon="6.95233">
        <ele>1799.24</ele>
        <time>2011-04-04T06:35:52Z</time>
      </trkpt>
      <trkpt lat="44.81216" lon="6.95298">
        <ele>1816.07</ele>
        <time>2011-04-04T06:37:39Z</time>
      </trkpt>
      <trkpt lat="44.81189" lon="6.95355">
        <ele>1830.49</ele>
        <time>2011-04-04T06:39:17Z</time>
      </trkpt>
      <trkpt lat="44.81163" lon="6.95294">
        <ele>1857.89</ele>
        <time>2011-04-04T06:47:16Z</time>
      </trkpt>
      <trkpt lat="44.81118" lon="6.95313">
        <ele>1872.79</ele>
        <time>2011-04-04T06:48:59Z</time>
      </trkpt>
      <trkpt lat="44.81102" lon="6.95372">
        <ele>1885.28</ele>
        <time>2011-04-04T06:50:28Z</time>
      </trkpt>
      <trkpt lat="44.8107" lon="6.95424">
        <ele>1899.22</ele>
        <time>2011-04-04T06:52:22Z</time>
      </trkpt>
      <trkpt lat="44.81039" lon="6.95476">
        <ele>1910.28</ele>
        <time>2011-04-04T06:53:53Z</time>
      </trkpt>
      <trkpt lat="44.80979" lon="6.95525">
        <ele>1918.45</ele>
        <time>2011-04-04T06:55:49Z</time>
      </trkpt>
      <trkpt lat="44.80937" lon="6.95552">
        <ele>1930.95</ele>
        <time>2011-04-04T06:57:17Z</time>
      </trkpt>
      <trkpt lat="44.80893" lon="6.95583">
        <ele>1939.12</ele>
        <time>2011-04-04T06:58:42Z</time>
      </trkpt>
      <trkpt lat="44.80858" lon="6.95632">
        <ele>1948.25</ele>
        <time>2011-04-04T07:00:08Z</time>
      </trkpt>
      <trkpt lat="44.80821" lon="6.95683">
        <ele>1960.27</ele>
        <time>2011-04-04T07:05:40Z</time>
      </trkpt>
      <trkpt lat="44.80801" lon="6.9575">
        <ele>1979.01</ele>
        <time>2011-04-04T07:07:32Z</time>
      </trkpt>
      <trkpt lat="44.80788" lon="6.95822">
        <ele>1986.22</ele>
        <time>2011-04-04T07:09:26Z</time>
      </trkpt>
      <trkpt lat="44.80793" lon="6.95901">
        <ele>1988.14</ele>
        <time>2011-04-04T07:10:25Z</time>
      </trkpt>
      <trkpt lat="44.80775" lon="6.95968">
        <ele>1994.87</ele>
        <time>2011-04-04T07:11:39Z</time>
      </trkpt>
      <trkpt lat="44.80774" lon="6.96057">
        <ele>2000.16</ele>
        <time>2011-04-04T07:12:58Z</time>
      </trkpt>
      <trkpt lat="44.8076" lon="6.96116">
        <ele>2001.12</ele>
        <time>2011-04-04T07:13:59Z</time>
      </trkpt>
      <trkpt lat="44.80753" lon="6.96177">
        <ele>2004.49</ele>
        <time>2011-04-04T07:14:59Z</time>
      </trkpt>
      <trkpt lat="44.80724" lon="6.96239">
        <ele>2005.45</ele>
        <time>2011-04-04T07:16:02Z</time>
      </trkpt>
      <trkpt lat="44.80698" lon="6.96296">
        <ele>2006.41</ele>
        <time>2011-04-04T07:16:53Z</time>
      </trkpt>
      <trkpt lat="44.80664" lon="6.96337">
        <ele>2008.33</ele>
        <time>2011-04-04T07:17:59Z</time>
      </trkpt>
      <trkpt lat="44.80662" lon="6.96409">
        <ele>2008.33</ele>
        <time>2011-04-04T07:19:07Z</time>
      </trkpt>
      <trkpt lat="44.80673" lon="6.96493">
        <ele>2008.81</ele>
        <time>2011-04-04T07:20:21Z</time>
      </trkpt>
      <trkpt lat="44.80688" lon="6.96561">
        <ele>2008.81</ele>
        <time>2011-04-04T07:21:22Z</time>
      </trkpt>
      <trkpt lat="44.80671" lon="6.96628">
        <ele>2010.73</ele>
        <time>2011-04-04T07:24:50Z</time>
      </trkpt>
      <trkpt lat="44.80681" lon="6.9671">
        <ele>2012.18</ele>
        <time>2011-04-04T07:30:35Z</time>
      </trkpt>
      <trkpt lat="44.80667" lon="6.96771">
        <ele>2012.18</ele>
        <time>2011-04-04T07:31:39Z</time>
      </trkpt>
      <trkpt lat="44.80658" lon="6.96844">
        <ele>2014.58</ele>
        <time>2011-04-04T07:32:43Z</time>
      </trkpt>
      <trkpt lat="44.8064" lon="6.9692">
        <ele>2020.83</ele>
        <time>2011-04-04T07:34:49Z</time>
      </trkpt>
      <trkpt lat="44.80597" lon="6.96946">
        <ele>2026.6</ele>
        <time>2011-04-04T07:36:13Z</time>
      </trkpt>
      <trkpt lat="44.80538" lon="6.96969">
        <ele>2049.19</ele>
        <time>2011-04-04T07:39:08Z</time>
      </trkpt>
      <trkpt lat="44.80475" lon="6.96972">
        <ele>2062.65</ele>
        <time>2011-04-04T07:40:54Z</time>
      </trkpt>
      <trkpt lat="44.8042" lon="6.9695">
        <ele>2077.07</ele>
        <time>2011-04-04T07:42:40Z</time>
      </trkpt>
      <trkpt lat="44.8038" lon="6.96901">
        <ele>2100.62</ele>
        <time>2011-04-04T07:45:59Z</time>
      </trkpt>
      <trkpt lat="44.80337" lon="6.96875">
        <ele>2105.91</ele>
        <time>2011-04-04T07:47:03Z</time>
      </trkpt>
      <trkpt lat="44.80303" lon="6.96825">
        <ele>2121.77</ele>
        <time>2011-04-04T07:54:04Z</time>
      </trkpt>
      <trkpt lat="44.80255" lon="6.9681">
        <ele>2137.15</ele>
        <time>2011-04-04T07:55:51Z</time>
      </trkpt>
      <trkpt lat="44.8022" lon="6.96768">
        <ele>2149.16</ele>
        <time>2011-04-04T07:57:28Z</time>
      </trkpt>
      <trkpt lat="44.80169" lon="6.96783">
        <ele>2167.91</ele>
        <time>2011-04-04T07:59:44Z</time>
      </trkpt>
      <trkpt lat="44.8013" lon="6.96743">
        <ele>2192.42</ele>
        <time>2011-04-04T08:03:52Z</time>
      </trkpt>
      <trkpt lat="44.80089" lon="6.96696">
        <ele>2199.15</ele>
        <time>2011-04-04T08:05:46Z</time>
      </trkpt>
      <trkpt lat="44.80043" lon="6.9668">
        <ele>2206.36</ele>
        <time>2011-04-04T08:07:10Z</time>
      </trkpt>
      <trkpt lat="44.79989" lon="6.96661">
        <ele>2214.05</ele>
        <time>2011-04-04T08:09:42Z</time>
      </trkpt>
      <trkpt lat="44.7994" lon="6.96674">
        <ele>2232.8</ele>
        <time>2011-04-04T08:12:12Z</time>
      </trkpt>
      <trkpt lat="44.79892" lon="6.96635">
        <ele>2245.3</ele>
        <time>2011-04-04T08:13:40Z</time>
      </trkpt>
      <trkpt lat="44.79848" lon="6.96611">
        <ele>2261.16</ele>
        <time>2011-04-04T08:15:41Z</time>
      </trkpt>
      <trkpt lat="44.79805" lon="6.96586">
        <ele>2268.37</ele>
        <time>2011-04-04T08:22:38Z</time>
      </trkpt>
      <trkpt lat="44.79778" lon="6.96524">
        <ele>2269.81</ele>
        <time>2011-04-04T08:23:34Z</time>
      </trkpt>
      <trkpt lat="44.79763" lon="6.96458">
        <ele>2277.98</ele>
        <time>2011-04-04T08:24:43Z</time>
      </trkpt>
      <trkpt lat="44.79762" lon="6.9639">
        <ele>2292.4</ele>
        <time>2011-04-04T08:26:25Z</time>
      </trkpt>
      <trkpt lat="44.79737" lon="6.96324">
        <ele>2304.42</ele>
        <time>2011-04-04T08:28:12Z</time>
      </trkpt>
      <trkpt lat="44.79689" lon="6.96286">
        <ele>2315.95</ele>
        <time>2011-04-04T08:29:37Z</time>
      </trkpt>
      <trkpt lat="44.79654" lon="6.96237">
        <ele>2339.99</ele>
        <time>2011-04-04T08:32:41Z</time>
      </trkpt>
      <trkpt lat="44.79674" lon="6.96176">
        <ele>2349.6</ele>
        <time>2011-04-04T08:34:00Z</time>
      </trkpt>
      <trkpt lat="44.7966" lon="6.9611">
        <ele>2363.54</ele>
        <time>2011-04-04T08:35:32Z</time>
      </trkpt>
      <trkpt lat="44.79638" lon="6.96049">
        <ele>2372.19</ele>
        <time>2011-04-04T08:36:44Z</time>
      </trkpt>
      <trkpt lat="44.79613" lon="6.95997">
        <ele>2380.84</ele>
        <time>2011-04-04T08:38:13Z</time>
      </trkpt>
      <trkpt lat="44.79574" lon="6.96032">
        <ele>2391.42</ele>
        <time>2011-04-04T08:39:23Z</time>
      </trkpt>
      <trkpt lat="44.79546" lon="6.96084">
        <ele>2397.67</ele>
        <time>2011-04-04T08:49:12Z</time>
      </trkpt>
      <trkpt lat="44.79512" lon="6.96127">
        <ele>2409.68</ele>
        <time>2011-04-04T08:50:57Z</time>
      </trkpt>
      <trkpt lat="44.79488" lon="6.96184">
        <ele>2430.35</ele>
        <time>2011-04-04T08:53:04Z</time>
      </trkpt>
      <trkpt lat="44.79439" lon="6.96228">
        <ele>2442.85</ele>
        <time>2011-04-04T08:55:00Z</time>
      </trkpt>
      <trkpt lat="44.79425" lon="6.96287">
        <ele>2475.05</ele>
        <time>2011-04-04T08:58:19Z</time>
      </trkpt>
      <trkpt lat="44.79431" lon="6.96294">
        <ele>2475.05</ele>
        <time>2011-04-04T08:59:38Z</time>
      </trkpt>
      <trkpt lat="44.79409" lon="6.9632">
        <ele>2485.15</ele>
        <time>2011-04-04T09:01:04Z</time>
      </trkpt>
      <trkpt lat="44.79379" lon="6.96375">
        <ele>2497.64</ele>
        <time>2011-04-04T09:02:28Z</time>
      </trkpt>
      <trkpt lat="44.79354" lon="6.96427">
        <ele>2510.14</ele>
        <time>2011-04-04T09:03:58Z</time>
      </trkpt>
      <trkpt lat="44.79336" lon="6.96488">
        <ele>2526.48</ele>
        <time>2011-04-04T09:07:51Z</time>
      </trkpt>
      <trkpt lat="44.79308" lon="6.96538">
        <ele>2525.52</ele>
        <time>2011-04-04T09:13:11Z</time>
      </trkpt>
      <trkpt lat="44.7928" lon="6.96589">
        <ele>2530.33</ele>
        <time>2011-04-04T09:14:17Z</time>
      </trkpt>
      <trkpt lat="44.79241" lon="6.96636">
        <ele>2542.34</ele>
        <time>2011-04-04T09:16:08Z</time>
      </trkpt>
      <trkpt lat="44.79214" lon="6.96688">
        <ele>2559.65</ele>
        <time>2011-04-04T09:17:44Z</time>
      </trkpt>
      <trkpt lat="44.79188" lon="6.96751">
        <ele>2574.55</ele>
        <time>2011-04-04T09:19:28Z</time>
      </trkpt>
      <trkpt lat="44.7916" lon="6.96819">
        <ele>2583.2</ele>
        <time>2011-04-04T09:20:58Z</time>
      </trkpt>
      <trkpt lat="44.79136" lon="6.96873">
        <ele>2577.43</ele>
        <time>2011-04-04T09:21:40Z</time>
      </trkpt>
      <trkpt lat="44.79119" lon="6.96935">
        <ele>2579.35</ele>
        <time>2011-04-04T09:23:11Z</time>
      </trkpt>
      <trkpt lat="44.79087" lon="6.96986">
        <ele>2581.28</ele>
        <time>2011-04-04T09:24:21Z</time>
      </trkpt>
      <trkpt lat="44.79054" lon="6.97035">
        <ele>2580.32</ele>
        <time>2011-04-04T09:26:06Z</time>
      </trkpt>
      <trkpt lat="44.79038" lon="6.97097">
        <ele>2590.41</ele>
        <time>2011-04-04T09:27:14Z</time>
      </trkpt>
      <trkpt lat="44.79025" lon="6.97171">
        <ele>2592.33</ele>
        <time>2011-04-04T09:28:21Z</time>
      </trkpt>
      <trkpt lat="44.79008" lon="6.9723">
        <ele>2589.45</ele>
        <time>2011-04-04T09:42:32Z</time>
      </trkpt>
      <trkpt lat="44.78991" lon="6.97352">
        <ele>2573.11</ele>
        <time>2011-04-04T09:43:06Z</time>
      </trkpt>
      <trkpt lat="44.79007" lon="6.97479">
        <ele>2556.28</ele>
        <time>2011-04-04T09:43:19Z</time>
      </trkpt>
      <trkpt lat="44.79031" lon="6.97614">
        <ele>2556.28</ele>
        <time>2011-04-04T09:44:38Z</time>
      </trkpt>
      <trkpt lat="44.79119" lon="6.97579">
        <ele>2498.6</ele>
        <time>2011-04-04T09:50:37Z</time>
      </trkpt>
      <trkpt lat="44.79168" lon="6.97459">
        <ele>2487.07</ele>
        <time>2011-04-04T09:52:50Z</time>
      </trkpt>
      <trkpt lat="44.79216" lon="6.97347">
        <ele>2469.28</ele>
        <time>2011-04-04T09:53:16Z</time>
      </trkpt>
      <trkpt lat="44.79274" lon="6.97441">
        <ele>2434.68</ele>
        <time>2011-04-04T09:55:03Z</time>
      </trkpt>
      <trkpt lat="44.79361" lon="6.97476">
        <ele>2401.99</ele>
        <time>2011-04-04T09:57:12Z</time>
      </trkpt>
      <trkpt lat="44.79448" lon="6.97458">
        <ele>2384.21</ele>
        <time>2011-04-04T09:57:26Z</time>
      </trkpt>
      <trkpt lat="44.79509" lon="6.97357">
        <ele>2364.02</ele>
        <time>2011-04-04T09:59:25Z</time>
      </trkpt>
      <trkpt lat="44.79578" lon="6.97281">
        <ele>2332.78</ele>
        <time>2011-04-04T10:01:23Z</time>
      </trkpt>
      <trkpt lat="44.79663" lon="6.97247">
        <ele>2294.8</ele>
        <time>2011-04-04T10:01:51Z</time>
      </trkpt>
      <trkpt lat="44.79705" lon="6.97358">
        <ele>2239.53</ele>
        <time>2011-04-04T10:06:47Z</time>
      </trkpt>
      <trkpt lat="44.79712" lon="6.97493">
        <ele>2230.88</ele>
        <time>2011-04-04T10:07:26Z</time>
      </trkpt>
      <trkpt lat="44.79783" lon="6.97671">
        <ele>2215.98</ele>
        <time>2011-04-04T10:08:16Z</time>
      </trkpt>
      <trkpt lat="44.79866" lon="6.97622">
        <ele>2194.35</ele>
        <time>2011-04-04T10:10:03Z</time>
      </trkpt>
      <trkpt lat="44.79955" lon="6.97575">
        <ele>2181.85</ele>
        <time>2011-04-04T10:10:32Z</time>
      </trkpt>
      <trkpt lat="44.80026" lon="6.97485">
        <ele>2147.24</ele>
        <time>2011-04-04T10:15:53Z</time>
      </trkpt>
      <trkpt lat="44.80112" lon="6.97434">
        <ele>2127.05</ele>
        <time>2011-04-04T10:17:51Z</time>
      </trkpt>
      <trkpt lat="44.80209" lon="6.97424">
        <ele>2080.91</ele>
        <time>2011-04-04T10:21:03Z</time>
      </trkpt>
      <trkpt lat="44.80343" lon="6.97368">
        <ele>2053.03</ele>
        <time>2011-04-04T10:22:56Z</time>
      </trkpt>
      <trkpt lat="44.80416" lon="6.97291">
        <ele>2034.77</ele>
        <time>2011-04-04T10:23:17Z</time>
      </trkpt>
      <trkpt lat="44.8051" lon="6.97222">
        <ele>2010.73</ele>
        <time>2011-04-04T10:25:48Z</time>
      </trkpt>
      <trkpt lat="44.80589" lon="6.97179">
        <ele>1989.59</ele>
        <time>2011-04-04T10:26:33Z</time>
      </trkpt>
      <trkpt lat="44.80672" lon="6.97123">
        <ele>1969.4</ele>
        <time>2011-04-04T10:28:54Z</time>
      </trkpt>
      <trkpt lat="44.80769" lon="6.97135">
        <ele>1931.43</ele>
        <time>2011-04-04T10:30:49Z</time>
      </trkpt>
      <trkpt lat="44.80863" lon="6.97149">
        <ele>1926.62</ele>
        <time>2011-04-04T10:34:44Z</time>
      </trkpt>
      <trkpt lat="44.80955" lon="6.97103">
        <ele>1918.45</ele>
        <time>2011-04-04T10:35:38Z</time>
      </trkpt>
      <trkpt lat="44.81049" lon="6.97024">
        <ele>1908.83</ele>
        <time>2011-04-04T10:36:17Z</time>
      </trkpt>
      <trkpt lat="44.81127" lon="6.96937">
        <ele>1896.82</ele>
        <time>2011-04-04T10:36:49Z</time>
      </trkpt>
      <trkpt lat="44.8121" lon="6.96886">
        <ele>1891.53</ele>
        <time>2011-04-04T10:41:12Z</time>
      </trkpt>
      <trkpt lat="44.81204" lon="6.96748">
        <ele>1864.61</ele>
        <time>2011-04-04T11:34:55Z</time>
      </trkpt>
      <trkpt lat="44.81183" lon="6.96603">
        <ele>1861.25</ele>
        <time>2011-04-04T11:35:41Z</time>
      </trkpt>
      <trkpt lat="44.81161" lon="6.96462">
        <ele>1857.89</ele>
        <time>2011-04-04T11:36:34Z</time>
      </trkpt>
      <trkpt lat="44.81158" lon="6.96337">
        <ele>1852.12</ele>
        <time>2011-04-04T11:37:46Z</time>
      </trkpt>
      <trkpt lat="44.81186" lon="6.96222">
        <ele>1846.83</ele>
        <time>2011-04-04T11:38:52Z</time>
      </trkpt>
      <trkpt lat="44.81183" lon="6.96059">
        <ele>1840.1</ele>
        <time>2011-04-04T11:40:38Z</time>
      </trkpt>
      <trkpt lat="44.81243" lon="6.95918">
        <ele>1827.6</ele>
        <time>2011-04-04T11:46:48Z</time>
      </trkpt>
      <trkpt lat="44.81255" lon="6.95786">
        <ele>1821.35</ele>
        <time>2011-04-04T11:48:27Z</time>
      </trkpt>
      <trkpt lat="44.81252" lon="6.95637">
        <ele>1815.11</ele>
        <time>2011-04-04T11:50:14Z</time>
      </trkpt>
      <trkpt lat="44.81301" lon="6.95525">
        <ele>1812.22</ele>
        <time>2011-04-04T11:51:51Z</time>
      </trkpt>
      <trkpt lat="44.81337" lon="6.95408">
        <ele>1811.74</ele>
        <time>2011-04-04T11:53:13Z</time>
      </trkpt>
      <trkpt lat="44.81404" lon="6.95317">
        <ele>1807.9</ele>
        <time>2011-04-04T11:54:39Z</time>
      </trkpt>
      <trkpt lat="44.8147" lon="6.95229">
        <ele>1806.94</ele>
        <time>2011-04-04T11:56:02Z</time>
      </trkpt>
      <trkpt lat="44.81532" lon="6.95124">
        <ele>1795.88</ele>
        <time>2011-04-04T11:57:33Z</time>
      </trkpt>
      <trkpt lat="44.81555" lon="6.94987">
        <ele>1789.15</ele>
        <time>2011-04-04T11:59:06Z</time>
      </trkpt>
      <trkpt lat="44.81574" lon="6.94866">
        <ele>1781.94</ele>
        <time>2011-04-04T12:00:26Z</time>
      </trkpt>
      <trkpt lat="44.8163" lon="6.94749">
        <ele>1773.77</ele>
        <time>2011-04-04T12:02:00Z</time>
      </trkpt>
      <trkpt lat="44.81725" lon="6.9463">
        <ele>1766.56</ele>
        <time>2011-04-04T12:04:07Z</time>
      </trkpt>
      <trkpt lat="44.81807" lon="6.94503">
        <ele>1761.75</ele>
        <time>2011-04-04T12:06:10Z</time>
      </trkpt>
      <trkpt lat="44.81895" lon="6.94448">
        <ele>1762.71</ele>
        <time>2011-04-04T12:08:04Z</time>
      </trkpt>
      <trkpt lat="44.81943" lon="6.94423">
        <ele>1767.04</ele>
        <time>2011-04-04T12:16:12Z</time>
      </trkpt>
    </trkseg>
  </trk>
</gpx>